createdAt,value
2023-01-29T06:01:18.971Z,51.90
2023-01-29T06:03:46.771Z,60.63
2023-01-29T06:06:13.922Z,57.03
2023-01-29T06:08:40.867Z,57.22
2023-01-29T06:11:09.521Z,59.38
2023-01-29T06:13:36.238Z,59.80
2023-01-29T06:16:07.730Z,54.25
2023-01-29T06:18:35.511Z,61.00
2023-01-29T06:21:04.366Z,60.00
2023-01-29T06:23:31.616Z,59.05
2023-01-29T06:26:04.120Z,53.17
2023-01-29T06:28:31.036Z,57.47
2023-01-29T06:31:08.258Z,61.50
2023-01-29T06:33:43.439Z,58.92
2023-01-29T06:36:10.759Z,58.67
2023-01-29T06:38:37.332Z,63.15
2023-01-29T06:41:12.639Z,60.97
2023-01-29T06:43:39.885Z,61.10
2023-01-29T06:46:08.794Z,68.25
2023-01-29T06:48:35.957Z,60.83
2023-01-29T06:51:05.880Z,63.05
2023-01-29T06:53:33.958Z,60.53
2023-01-29T06:56:01.169Z,56.05
2023-01-29T06:58:28.936Z,61.63
2023-01-29T07:01:03.534Z,65.63
2023-01-29T07:03:30.156Z,59.50
2023-01-29T07:05:57.324Z,57.80
2023-01-29T07:08:23.925Z,60.45
2023-01-29T07:10:51.123Z,58.03
2023-01-29T07:13:17.748Z,53.10
2023-01-29T07:15:44.907Z,63.42
2023-01-29T07:18:14.323Z,62.47
2023-01-29T07:23:13.325Z,66.15
2023-01-29T07:25:42.140Z,57.38
2023-01-29T07:28:09.211Z,60.22
2023-01-29T07:30:37.201Z,56.42
2023-01-29T07:33:07.428Z,64.70
2023-01-29T07:35:46.839Z,60.40
2023-01-29T07:38:15.113Z,68.20
2023-01-29T07:40:42.432Z,57.20
2023-01-29T07:43:11.160Z,63.30
2023-01-29T07:45:39.897Z,66.25
2023-01-29T07:48:09.924Z,60.35
2023-01-29T07:50:37.374Z,61.15
2023-01-29T07:53:04.264Z,58.88
2023-01-29T07:55:32.996Z,64.53
2023-01-29T07:58:02.007Z,67.18
2023-01-29T08:00:30.572Z,65.88
2023-01-29T08:03:13.102Z,58.65
2023-01-29T08:05:40.478Z,59.22
2023-01-29T08:08:08.007Z,65.18
2023-01-29T08:10:36.669Z,58.80
2023-01-29T08:13:05.143Z,58.40
2023-01-29T08:15:32.916Z,65.38
2023-01-29T08:18:01.272Z,61.13
2023-01-29T08:20:28.697Z,64.57
2023-01-29T08:23:00.941Z,66.50
2023-01-29T08:25:28.212Z,72.85
2023-01-29T08:28:00.562Z,63.80
2023-01-29T08:30:30.413Z,66.32
2023-01-29T08:32:58.112Z,67.38
2023-01-29T08:35:32.601Z,69.57
2023-01-29T08:38:01.714Z,64.40
2023-01-29T08:40:31.762Z,67.17
2023-01-29T08:43:02.164Z,64.75
2023-01-29T08:45:30.223Z,67.43
2023-01-29T08:47:58.768Z,72.43
2023-01-29T08:50:26.970Z,62.58
2023-01-29T08:52:59.494Z,69.78
2023-01-29T08:55:28.737Z,74.85
2023-01-29T08:58:14.576Z,76.82
2023-01-29T09:00:41.533Z,67.93
2023-01-29T09:03:08.795Z,64.57
2023-01-29T09:05:37.948Z,72.22
2023-01-29T09:08:06.248Z,73.32
2023-01-29T09:10:33.526Z,66.57
2023-01-29T09:13:00.782Z,67.75
2023-01-29T09:15:28.240Z,75.38
2023-01-29T09:17:55.423Z,71.30
2023-01-29T09:20:22.215Z,74.68
2023-01-29T09:22:51.433Z,74.95
2023-01-29T09:25:18.363Z,63.10
2023-01-29T09:27:45.832Z,68.30
2023-01-29T09:30:12.744Z,67.68
2023-01-29T09:32:55.492Z,68.93
2023-01-29T09:35:23.503Z,72.78
2023-01-29T09:37:51.909Z,72.18
2023-01-29T09:40:38.543Z,76.10
2023-01-29T09:43:20.699Z,66.15
2023-01-29T09:45:57.260Z,64.50
2023-01-29T09:48:28.960Z,69.88
2023-01-29T09:50:58.767Z,65.47
2023-01-29T09:56:06.152Z,64.15
2023-01-29T09:58:40.142Z,70.45
2023-01-29T10:01:28.001Z,70.95
2023-01-29T10:04:36.617Z,70.75
2023-01-29T10:07:34.957Z,69.13
2023-01-29T10:10:22.403Z,63.20
2023-01-29T10:13:15.886Z,66.47
2023-01-29T10:15:58.856Z,67.53
2023-01-29T10:18:45.241Z,71.05
2023-01-29T10:21:27.016Z,73.88
2023-01-29T10:24:17.073Z,65.35
2023-01-29T10:26:43.675Z,62.15
2023-01-29T10:29:18.542Z,65.10
2023-01-29T10:31:49.757Z,65.90
2023-01-29T10:34:52.452Z,60.17
2023-01-29T10:37:24.254Z,61.45
2023-01-29T10:39:51.651Z,66.35
2023-01-29T10:42:22.047Z,61.90
2023-01-29T10:45:10.422Z,67.85
2023-01-29T10:48:09.803Z,59.00
2023-01-29T10:50:43.420Z,58.22
2023-01-29T10:53:44.384Z,63.25
2023-01-29T10:57:02.189Z,61.50
2023-01-29T11:00:11.788Z,56.25
2023-01-29T11:02:46.092Z,61.53
2023-01-29T11:05:43.981Z,56.70
2023-01-29T11:08:18.379Z,58.58
2023-01-29T11:11:08.823Z,60.92
2023-01-29T11:13:53.906Z,59.97
2023-01-29T11:16:20.820Z,57.10
2023-01-29T11:19:00.429Z,55.45
2023-01-29T11:21:29.321Z,59.75
2023-01-29T11:24:17.876Z,58.58
2023-01-29T11:26:48.326Z,58.38
2023-01-29T11:29:34.584Z,62.63
2023-01-29T11:32:05.587Z,59.22
2023-01-29T11:34:32.984Z,56.25
2023-01-29T11:37:01.887Z,54.20
2023-01-29T11:39:32.717Z,61.22
2023-01-29T11:42:04.473Z,60.38
2023-01-29T11:44:42.233Z,57.05
2023-01-29T11:47:11.861Z,57.80
2023-01-29T11:49:41.592Z,56.05
2023-01-29T11:52:10.036Z,68.55
2023-01-29T11:54:47.471Z,63.35
2023-01-29T11:57:28.863Z,74.60
2023-01-29T12:00:01.135Z,65.13
2023-01-29T12:02:38.763Z,57.25
2023-01-29T12:05:18.634Z,56.17
2023-01-29T12:07:49.445Z,57.85
2023-01-29T12:10:38.408Z,66.50
2023-01-29T12:13:05.842Z,55.47
2023-01-29T12:15:33.467Z,73.10
2023-01-29T12:18:16.885Z,55.47
2023-01-29T12:20:51.921Z,56.70
2023-01-29T12:23:21.815Z,60.80
2023-01-29T12:26:07.665Z,64.50
2023-01-29T12:29:05.979Z,49.17
2023-01-29T12:31:43.831Z,51.72
2023-01-29T12:34:16.964Z,53.08
2023-01-29T12:36:59.727Z,50.45
2023-01-29T12:39:27.304Z,48.35
2023-01-29T12:42:04.301Z,51.53
2023-01-29T12:44:43.983Z,52.05
2023-01-29T12:47:19.020Z,56.08
2023-01-29T12:49:58.231Z,50.88
2023-01-29T12:53:03.705Z,48.53
2023-01-29T12:55:38.561Z,51.08
2023-01-29T12:58:12.955Z,50.55
2023-01-29T13:00:46.259Z,42.63
2023-01-29T13:03:45.038Z,50.92
2023-01-29T13:06:17.339Z,47.85
2023-01-29T13:09:02.028Z,53.17
2023-01-29T13:11:40.224Z,47.72
2023-01-29T13:14:13.572Z,48.55
2023-01-29T13:16:47.615Z,53.47
2023-01-29T13:19:37.729Z,50.38
2023-01-29T13:22:15.998Z,51.53
2023-01-29T13:24:49.956Z,50.42
2023-01-29T13:27:31.894Z,49.58
2023-01-29T13:30:00.123Z,55.42
2023-01-29T13:32:29.530Z,70.35
2023-01-29T13:37:46.588Z,78.50
2023-01-29T13:40:21.032Z,55.88
2023-01-29T13:42:49.920Z,56.47
2023-01-29T13:45:20.344Z,58.53
2023-01-29T13:47:48.651Z,69.85
2023-01-29T13:50:20.185Z,54.20
2023-01-29T13:52:55.169Z,65.72
2023-01-29T13:55:31.423Z,53.33
2023-01-29T13:58:02.668Z,56.35
2023-01-29T14:00:36.001Z,59.97
2023-01-29T14:03:05.232Z,55.17
2023-01-29T14:05:32.474Z,55.70
2023-01-29T14:08:01.811Z,60.92
2023-01-29T14:13:11.682Z,55.53
2023-01-29T14:15:42.007Z,55.97
2023-01-29T14:18:08.543Z,53.25
2023-01-29T14:20:47.971Z,55.72
2023-01-29T14:23:36.537Z,56.05
2023-01-29T14:26:06.644Z,57.05
2023-01-29T14:31:03.261Z,57.30
2023-01-29T14:33:43.426Z,56.50
2023-01-29T14:36:14.558Z,55.05
2023-01-29T14:38:48.431Z,52.33
2023-01-29T14:41:21.742Z,58.22
2023-01-29T14:43:48.383Z,58.17
2023-01-29T14:46:33.620Z,53.38
2023-01-29T14:49:00.871Z,53.00
2023-01-29T14:51:34.722Z,50.50
2023-01-29T14:54:15.434Z,51.67
2023-01-29T14:56:58.775Z,55.90
2023-01-29T14:59:53.472Z,50.72
2023-01-29T15:02:27.179Z,52.13
2023-01-29T15:04:58.328Z,50.67
2023-01-29T15:07:39.935Z,47.40
2023-01-29T15:10:22.716Z,51.92
2023-01-29T15:13:01.594Z,47.22
2023-01-29T15:15:52.796Z,45.38
2023-01-29T15:18:31.644Z,45.33
2023-01-29T15:21:11.812Z,55.65
2023-01-29T15:23:40.768Z,49.72
2023-01-29T15:26:12.409Z,45.92
2023-01-29T15:28:40.147Z,50.85
2023-01-29T15:31:16.965Z,48.08
2023-01-29T15:33:48.122Z,52.40
2023-01-29T15:36:29.839Z,51.85
2023-01-29T15:39:11.728Z,48.45
2023-01-29T15:41:39.221Z,50.60
2023-01-29T15:44:24.488Z,47.92
2023-01-29T15:46:56.152Z,50.38
2023-01-29T15:49:32.984Z,47.00
2023-01-29T15:52:04.963Z,47.28
2023-01-29T15:54:33.547Z,48.88
2023-01-29T15:57:05.521Z,46.80
2023-01-29T15:59:36.587Z,46.97
2023-01-29T16:02:29.846Z,49.47
2023-01-29T16:04:56.567Z,52.30
2023-01-29T16:07:24.012Z,50.50
2023-01-29T16:09:52.712Z,43.95
2023-01-29T16:12:20.372Z,45.70
2023-01-29T16:14:49.679Z,47.20
2023-01-29T16:19:59.214Z,50.05
2023-01-29T16:22:33.178Z,48.30
2023-01-29T16:25:12.332Z,50.50
2023-01-29T16:27:43.519Z,46.55
2023-01-29T16:30:16.023Z,49.97
2023-01-29T16:32:43.438Z,46.40
2023-01-29T16:35:16.944Z,43.97
2023-01-29T16:37:49.195Z,46.90
2023-01-29T16:40:26.706Z,48.03
2023-01-29T16:43:42.427Z,48.35
2023-01-29T16:46:21.012Z,47.08
2023-01-29T16:48:47.985Z,53.55
2023-01-29T16:51:39.554Z,46.75
2023-01-29T16:54:18.309Z,48.63
2023-01-29T16:56:51.554Z,55.65
2023-01-29T16:59:29.111Z,48.70
2023-01-29T17:01:56.616Z,49.97
2023-01-29T17:04:23.161Z,49.67
2023-01-29T17:06:56.869Z,44.15
2023-01-29T17:09:29.145Z,44.03
2023-01-29T17:11:59.039Z,52.58
2023-01-29T17:17:03.585Z,47.80
2023-01-29T17:19:30.331Z,51.10
2023-01-29T17:21:59.814Z,46.97
2023-01-29T17:24:26.652Z,47.38
2023-01-29T17:26:54.627Z,45.45
2023-01-29T17:29:27.861Z,46.03
2023-01-29T17:31:58.205Z,46.28
2023-01-29T17:34:24.980Z,46.13
2023-01-29T17:36:52.708Z,41.63
2023-01-29T17:39:21.671Z,43.92
2023-01-29T17:41:51.336Z,40.70
2023-01-29T17:44:18.435Z,45.53
2023-01-29T17:46:46.747Z,44.63
2023-01-29T17:49:28.501Z,43.95
2023-01-29T17:51:56.697Z,45.55
2023-01-29T17:54:25.726Z,42.13
2023-01-29T17:56:53.339Z,44.42
2023-01-29T17:59:22.610Z,41.75
2023-01-29T18:01:51.053Z,43.58
2023-01-29T18:04:17.861Z,42.60
2023-01-29T18:06:50.853Z,45.90
2023-01-29T18:09:20.657Z,46.90
2023-01-29T18:11:48.816Z,44.58
2023-01-29T18:14:15.779Z,48.60
2023-01-29T18:16:45.252Z,42.70
2023-01-29T18:19:22.216Z,45.17
2023-01-29T18:21:50.701Z,47.53
2023-01-29T18:24:17.766Z,46.85
2023-01-29T18:26:44.750Z,52.78
2023-01-29T18:29:11.876Z,45.55
2023-01-29T18:31:38.589Z,52.58
2023-01-29T18:34:06.012Z,45.58
2023-01-29T18:36:32.598Z,48.95
2023-01-29T18:38:59.824Z,47.67
2023-01-29T18:41:26.600Z,45.70
2023-01-29T18:43:58.686Z,45.88
2023-01-29T18:46:25.585Z,49.67
2023-01-29T18:48:53.165Z,54.05
2023-01-29T18:51:19.987Z,51.00
2023-01-29T18:54:03.027Z,46.97
2023-01-29T18:56:30.506Z,45.83
2023-01-29T18:58:57.274Z,46.58
2023-01-29T19:01:25.060Z,50.97
2023-01-29T19:03:52.336Z,55.03
2023-01-29T19:06:19.542Z,54.97
2023-01-29T19:08:47.588Z,54.80
2023-01-29T19:11:17.352Z,51.78
2023-01-29T19:13:44.978Z,50.53
2023-01-29T19:16:13.837Z,53.42
2023-01-29T19:18:40.804Z,53.50
2023-01-29T19:21:10.499Z,57.63
2023-01-29T19:23:38.600Z,53.65
2023-01-29T19:26:05.940Z,57.83
2023-01-29T19:28:33.715Z,52.20
2023-01-29T19:31:01.374Z,53.00
2023-01-29T19:33:30.482Z,50.58
2023-01-29T19:35:58.881Z,53.28
2023-01-29T19:38:27.650Z,53.70
2023-01-29T19:40:55.297Z,49.42
2023-01-29T19:43:22.425Z,49.50
2023-01-29T19:45:50.893Z,50.38
2023-01-29T19:48:22.137Z,57.13
2023-01-29T19:50:58.226Z,46.97
2023-01-29T19:53:28.759Z,51.20
2023-01-29T19:56:04.714Z,47.85
2023-01-29T19:58:32.412Z,50.50
2023-01-29T20:01:03.608Z,46.78
2023-01-29T20:03:32.719Z,53.50
2023-01-29T20:08:35.004Z,48.80
2023-01-29T20:11:04.477Z,44.90
2023-01-29T20:13:32.358Z,44.72
2023-01-29T20:16:03.461Z,42.75
2023-01-29T20:18:30.355Z,41.45
2023-01-29T20:20:59.160Z,44.78
2023-01-29T20:23:37.304Z,44.37
2023-01-29T20:26:07.557Z,45.05
2023-01-29T20:28:35.107Z,38.28
2023-01-29T20:31:03.139Z,41.35
2023-01-29T20:33:30.698Z,39.70
2023-01-29T20:35:59.523Z,41.38
2023-01-29T20:38:36.530Z,42.53
2023-01-29T20:41:09.201Z,42.50
2023-01-29T20:43:36.240Z,40.97
2023-01-29T20:46:07.105Z,42.60
2023-01-29T20:48:36.222Z,41.08
2023-01-29T20:51:15.846Z,40.33
2023-01-29T20:53:45.435Z,45.20
2023-01-29T20:56:14.440Z,41.70
2023-01-29T20:58:41.411Z,45.90
2023-01-29T21:01:14.600Z,39.40
2023-01-29T21:03:41.726Z,38.67
2023-01-29T21:06:10.655Z,46.40
2023-01-29T21:08:37.960Z,42.70
2023-01-29T21:11:06.589Z,41.67
2023-01-29T21:13:36.597Z,39.58
2023-01-29T21:16:04.594Z,40.53
2023-01-29T21:18:32.198Z,41.72
2023-01-29T21:20:59.532Z,40.25
2023-01-29T21:23:26.132Z,42.58
2023-01-29T21:25:53.348Z,43.15
2023-01-29T21:28:19.950Z,43.90
